Darstellungsparameter: Aktuell verwendete Einstellungen:
Skalierung der Graphiken ... ?
xyx+y,   Skalierungsfaktor:      Skalierung: Modus: x, Faktor: 1
Darstellungszeitraum ... ?
Vom - - bis: - -   Zeitraum: 19.02.2019 - 19.02.2019
Min/Max/Avg-Anzeige ... ?
Zeige MMA aktuell
Zeige MMA Monat
Zeige MMA alles
Zeige --A aktuell
Zeige --A Monat
Zeige --A alles
Keine MMA-Anzeige
MMA:
Keine MMA-Graphiken
MMA-Basis: 19.02.2019 - 19.02.2019
Quicknavigation für Darstellung... ?
Tage:      1T, 2T, 3T, 5T -1T -2T -3T -5T +1T +2T +3T +5T
Wochen: 1W, 2W, 3W -1W -2W -3W +1W +2W +3W
Monate: 1M, 3M, 6M -1M -3M -6M +1M +3M +6M
Jahre:    1J, 3J, 5J, 10J -1J -3J -5J -10J +1J +3J +5J +10J
Nutze für die Darstellung ... ?
Originaldaten oder Mittelwerte auf ...
Stundenbasis Tagesbasis Wochenbasis
Monatsbasis Jahresbasis      Datenbasis: Original-Daten
Darstellen als:
Statistik (Auto) Statistik J:M      Darstellung:
Zur Graphik,    zurück zur Übersicht aller Sensoren.
 
Tabellarische Datenbersicht: ?
 
Sensor: Nr:Datum:Temp:Feuchte:Taupunkt:
Aussen-T/F 1 19-02-2019 00:00:00 1.8 C 91 % 0.49 C
2 19-02-2019 00:05:00 1.7 C 91 % 0.39 C
3 19-02-2019 00:10:00 1.7 C 92 % 0.54 C
4 19-02-2019 00:15:00 1.7 C 92 % 0.54 C
5 19-02-2019 00:20:00 1.7 C 92 % 0.54 C
6 19-02-2019 00:25:00 1.8 C 92 % 0.64 C
7 19-02-2019 00:30:00 1.7 C 92 % 0.54 C
8 19-02-2019 00:35:00 1.7 C 92 % 0.54 C
9 19-02-2019 00:40:00 1.7 C 92 % 0.54 C
10 19-02-2019 00:45:00 1.7 C 93 % 0.69 C
11 19-02-2019 00:50:00 1.7 C 93 % 0.69 C
12 19-02-2019 00:55:00 1.8 C 93 % 0.79 C
13 19-02-2019 01:00:00 1.8 C 93 % 0.79 C
14 19-02-2019 01:05:00 1.8 C 93 % 0.79 C
15 19-02-2019 01:10:00 1.8 C 93 % 0.79 C
16 19-02-2019 01:15:00 1.9 C 93 % 0.89 C
17 19-02-2019 01:20:00 1.9 C 93 % 0.89 C
18 19-02-2019 01:25:00 1.9 C 93 % 0.89 C
19 19-02-2019 01:30:00 1.8 C 92 % 0.64 C
20 19-02-2019 01:35:00 1.8 C 92 % 0.64 C
21 19-02-2019 01:40:00 1.8 C 93 % 0.79 C
22 19-02-2019 01:45:00 1.9 C 93 % 0.89 C
23 19-02-2019 01:50:00 1.8 C 93 % 0.79 C
24 19-02-2019 01:55:00 1.8 C 93 % 0.79 C
25 19-02-2019 02:00:00 1.8 C 93 % 0.79 C
Sensor: Nr:Datum:Temp:Feuchte:Taupunkt:
Aussen-T/F 26 19-02-2019 02:05:00 1.8 C 93 % 0.79 C
27 19-02-2019 02:10:00 1.8 C 93 % 0.79 C
28 19-02-2019 02:15:00 1.9 C 94 % 1.04 C
29 19-02-2019 02:20:00 2 C 93 % 0.99 C
30 19-02-2019 02:25:00 1.9 C 93 % 0.89 C
31 19-02-2019 02:30:00 1.8 C 93 % 0.79 C
32 19-02-2019 02:35:00 1.8 C 93 % 0.79 C
33 19-02-2019 02:40:00 1.8 C 93 % 0.79 C
34 19-02-2019 02:45:00 1.8 C 93 % 0.79 C
35 19-02-2019 02:50:00 1.9 C 94 % 1.04 C
36 19-02-2019 02:55:00 1.9 C 94 % 1.04 C
37 19-02-2019 03:00:00 2 C 94 % 1.14 C
38 19-02-2019 03:05:00 2 C 94 % 1.14 C
39 19-02-2019 03:10:00 2 C 94 % 1.14 C
40 19-02-2019 03:15:00 2.1 C 94 % 1.24 C
41 19-02-2019 03:20:00 2.1 C 94 % 1.24 C
42 19-02-2019 03:25:00 2.1 C 94 % 1.24 C
43 19-02-2019 03:30:00 2.3 C 95 % 1.58 C
44 19-02-2019 03:35:00 2.4 C 95 % 1.68 C
45 19-02-2019 03:40:00 2.6 C 95 % 1.88 C
46 19-02-2019 03:45:00 2.7 C 95 % 1.98 C
47 19-02-2019 03:50:00 2.8 C 95 % 2.08 C
48 19-02-2019 03:55:00 3 C 95 % 2.28 C
49 19-02-2019 04:00:00 3.2 C 95 % 2.48 C
50 19-02-2019 04:05:00 3.3 C 95 % 2.58 C
Sensor: Nr:Datum:Temp:Feuchte:Taupunkt:
Aussen-T/F 51 19-02-2019 04:10:00 3.4 C 95 % 2.68 C
52 19-02-2019 04:15:00 3.6 C 95 % 2.88 C
53 19-02-2019 04:20:00 3.7 C 95 % 2.98 C
54 19-02-2019 04:25:00 3.8 C 95 % 3.07 C
55 19-02-2019 04:30:00 3.8 C 94 % 2.93 C
56 19-02-2019 04:35:00 3.8 C 94 % 2.93 C
57 19-02-2019 04:40:00 3.8 C 93 % 2.77 C
58 19-02-2019 04:45:00 3.9 C 93 % 2.87 C
59 19-02-2019 04:50:00 4 C 93 % 2.97 C
60 19-02-2019 04:55:00 4.1 C 92 % 2.92 C
61 19-02-2019 05:00:00 4.1 C 92 % 2.92 C
62 19-02-2019 05:05:00 3.9 C 91 % 2.57 C
63 19-02-2019 05:10:00 3.9 C 90 % 2.41 C
64 19-02-2019 05:15:00 3.9 C 91 % 2.57 C
65 19-02-2019 05:20:00 3.9 C 91 % 2.57 C
66 19-02-2019 05:25:00 3.9 C 91 % 2.57 C
67 19-02-2019 05:30:00 3.9 C 91 % 2.57 C
68 19-02-2019 05:35:00 4 C 91 % 2.67 C
69 19-02-2019 05:40:00 4.1 C 91 % 2.77 C
70 19-02-2019 05:45:00 4.2 C 91 % 2.87 C
71 19-02-2019 05:50:00 4.3 C 90 % 2.81 C
72 19-02-2019 05:55:00 4.4 C 90 % 2.91 C
73 19-02-2019 06:00:00 4.6 C 90 % 3.1 C
74 19-02-2019 06:05:00 4.7 C 89 % 3.05 C
75 19-02-2019 06:10:00 4.8 C 88 % 2.99 C
Sensor: Nr:Datum:Temp:Feuchte:Taupunkt:
Aussen-T/F 76 19-02-2019 06:15:00 4.9 C 88 % 3.08 C
77 19-02-2019 06:20:00 5.1 C 87 % 3.12 C
78 19-02-2019 06:25:00 5.1 C 87 % 3.12 C
79 19-02-2019 06:30:00 5.1 C 87 % 3.12 C
80 19-02-2019 06:35:00 5.1 C 87 % 3.12 C
81 19-02-2019 06:40:00 5.1 C 87 % 3.12 C
82 19-02-2019 06:45:00 5.1 C 87 % 3.12 C
83 19-02-2019 06:50:00 5.1 C 88 % 3.28 C
84 19-02-2019 06:55:00 5.2 C 88 % 3.38 C
85 19-02-2019 07:00:00 5.2 C 88 % 3.38 C
86 19-02-2019 07:05:00 5.2 C 89 % 3.54 C
87 19-02-2019 07:10:00 5.2 C 89 % 3.54 C
88 19-02-2019 07:15:00 5.2 C 89 % 3.54 C
89 19-02-2019 07:20:00 5.2 C 89 % 3.54 C
90 19-02-2019 07:25:00 5.2 C 90 % 3.7 C
91 19-02-2019 07:30:00 5.2 C 90 % 3.7 C
92 19-02-2019 07:35:00 5.2 C 91 % 3.85 C
93 19-02-2019 07:40:00 5.2 C 91 % 3.85 C
94 19-02-2019 07:45:00 5.2 C 92 % 4.01 C
95 19-02-2019 07:50:00 5.2 C 92 % 4.01 C
96 19-02-2019 07:55:00 5.2 C 92 % 4.01 C
97 19-02-2019 08:00:00 5.2 C 92 % 4.01 C
98 19-02-2019 08:05:00 5.2 C 93 % 4.16 C
99 19-02-2019 08:10:00 5.1 C 92 % 3.91 C
100 19-02-2019 08:15:00 4.9 C 92 % 3.71 C
Sensor: Nr:Datum:Temp:Feuchte:Taupunkt:
Aussen-T/F 101 19-02-2019 08:20:00 4.9 C 93 % 3.87 C
102 19-02-2019 08:25:00 4.9 C 93 % 3.87 C
103 19-02-2019 08:30:00 4.8 C 93 % 3.77 C
104 19-02-2019 08:35:00 4.8 C 93 % 3.77 C
105 19-02-2019 08:40:00 4.8 C 94 % 3.92 C
106 19-02-2019 08:45:00 4.8 C 93 % 3.77 C
107 19-02-2019 08:50:00 4.7 C 93 % 3.67 C
108 19-02-2019 08:55:00 4.6 C 94 % 3.72 C
109 19-02-2019 09:00:00 4.7 C 94 % 3.82 C
110 19-02-2019 09:05:00 4.8 C 94 % 3.92 C
111 19-02-2019 09:10:00 4.9 C 95 % 4.17 C
112 19-02-2019 09:15:00 5 C 95 % 4.27 C
113 19-02-2019 09:20:00 5.1 C 95 % 4.37 C
114 19-02-2019 09:25:00 5.1 C 95 % 4.37 C
115 19-02-2019 09:30:00 5.2 C 95 % 4.47 C
116 19-02-2019 09:35:00 5.3 C 95 % 4.57 C
117 19-02-2019 09:40:00 5.5 C 95 % 4.76 C
118 19-02-2019 09:45:00 5.7 C 95 % 4.96 C
119 19-02-2019 09:50:00 5.8 C 95 % 5.06 C
120 19-02-2019 09:55:00 5.9 C 95 % 5.16 C
121 19-02-2019 10:00:00 5.9 C 95 % 5.16 C
122 19-02-2019 10:05:00 6.1 C 95 % 5.36 C
123 19-02-2019 10:10:00 6.2 C 95 % 5.46 C
124 19-02-2019 10:15:00 6.2 C 95 % 5.46 C
125 19-02-2019 10:20:00 6.2 C 94 % 5.31 C
Sensor: Nr:Datum:Temp:Feuchte:Taupunkt:
Aussen-T/F 126 19-02-2019 10:25:00 6.3 C 94 % 5.41 C
127 19-02-2019 10:30:00 6.4 C 94 % 5.51 C
128 19-02-2019 10:35:00 6.4 C 94 % 5.51 C
129 19-02-2019 10:40:00 6.5 C 94 % 5.61 C
130 19-02-2019 10:45:00 6.6 C 94 % 5.71 C
131 19-02-2019 10:50:00 6.6 C 94 % 5.71 C
132 19-02-2019 10:55:00 6.7 C 93 % 5.65 C
133 19-02-2019 11:00:00 6.7 C 93 % 5.65 C
134 19-02-2019 11:05:00 6.8 C 93 % 5.75 C
135 19-02-2019 11:10:00 6.9 C 93 % 5.85 C
136 19-02-2019 11:15:00 7.1 C 93 % 6.05 C
137 19-02-2019 11:20:00 7.1 C 93 % 6.05 C
138 19-02-2019 11:25:00 7.2 C 93 % 6.15 C
139 19-02-2019 11:30:00 7.3 C 93 % 6.25 C
140 19-02-2019 11:35:00 7.4 C 93 % 6.34 C
141 19-02-2019 11:40:00 7.6 C 92 % 6.39 C
142 19-02-2019 11:45:00 7.6 C 92 % 6.39 C
143 19-02-2019 11:50:00 7.8 C 92 % 6.58 C
144 19-02-2019 11:55:00 7.9 C 92 % 6.68 C
145 19-02-2019 12:00:00 8.1 C 92 % 6.88 C
146 19-02-2019 12:05:00 8.2 C 91 % 6.82 C
147 19-02-2019 12:10:00 8.4 C 91 % 7.02 C
148 19-02-2019 12:15:00 8.5 C 89 % 6.79 C
149 19-02-2019 12:20:00 8.6 C 88 % 6.73 C
150 19-02-2019 12:25:00 8.7 C 88 % 6.83 C
Sensor: Nr:Datum:Temp:Feuchte:Taupunkt:
Aussen-T/F 151 19-02-2019 12:30:00 8.8 C 88 % 6.93 C
152 19-02-2019 12:35:00 8.8 C 87 % 6.76 C
153 19-02-2019 12:40:00 8.9 C 86 % 6.69 C
154 19-02-2019 12:45:00 9.1 C 85 % 6.72 C
155 19-02-2019 12:50:00 9.2 C 85 % 6.81 C
156 19-02-2019 12:55:00 9.3 C 85 % 6.91 C
157 19-02-2019 13:00:00 9.2 C 84 % 6.64 C
158 19-02-2019 13:05:00 9.2 C 83 % 6.47 C
159 19-02-2019 13:10:00 9.3 C 83 % 6.57 C
160 19-02-2019 13:15:00 9.4 C 82 % 6.49 C
161 19-02-2019 13:20:00 9.7 C 83 % 6.96 C
162 19-02-2019 13:25:00 9.8 C 81 % 6.7 C
163 19-02-2019 13:30:00 10.1 C 82 % 7.17 C
164 19-02-2019 13:35:00 10.3 C 79 % 6.82 C
165 19-02-2019 13:40:00 10.4 C 78 % 6.74 C
166 19-02-2019 13:45:00 10.5 C 76 % 6.45 C
167 19-02-2019 13:50:00 10.6 C 75 % 6.36 C
168 19-02-2019 13:55:00 10.8 C 75 % 6.55 C
169 19-02-2019 14:00:00 10.8 C 75 % 6.55 C
170 19-02-2019 14:05:00 10.7 C 75 % 6.46 C
171 19-02-2019 14:10:00 10.7 C 74 % 6.26 C
172 19-02-2019 14:15:00 10.8 C 74 % 6.36 C
173 19-02-2019 14:20:00 10.7 C 74 % 6.26 C
174 19-02-2019 14:25:00 10.7 C 74 % 6.26 C
175 19-02-2019 14:30:00 10.6 C 74 % 6.17 C
Sensor: Nr:Datum:Temp:Feuchte:Taupunkt:
Aussen-T/F 176 19-02-2019 14:35:00 10.6 C 74 % 6.17 C
177 19-02-2019 14:40:00 10.5 C 75 % 6.26 C
178 19-02-2019 14:45:00 10.5 C 76 % 6.45 C
179 19-02-2019 14:50:00 10.6 C 75 % 6.36 C
180 19-02-2019 14:55:00 10.6 C 74 % 6.17 C
181 19-02-2019 15:00:00 10.7 C 74 % 6.26 C
182 19-02-2019 15:05:00 10.7 C 75 % 6.46 C
183 19-02-2019 15:10:00 10.8 C 74 % 6.36 C
184 19-02-2019 15:15:00 10.9 C 74 % 6.45 C
185 19-02-2019 15:20:00 10.9 C 73 % 6.26 C
186 19-02-2019 15:25:00 10.9 C 72 % 6.06 C
187 19-02-2019 15:30:00 10.9 C 73 % 6.26 C
188 19-02-2019 15:35:00 11 C 72 % 6.15 C
189 19-02-2019 15:40:00 11 C 71 % 5.95 C
190 19-02-2019 15:45:00 11.1 C 71 % 6.05 C
191 19-02-2019 15:50:00 11.2 C 71 % 6.14 C
192 19-02-2019 15:55:00 11.2 C 70 % 5.94 C
193 19-02-2019 16:00:00 11.3 C 72 % 6.44 C
194 19-02-2019 16:05:00 11.2 C 73 % 6.55 C
195 19-02-2019 16:10:00 11.1 C 72 % 6.25 C
196 19-02-2019 16:15:00 10.9 C 71 % 5.86 C
197 19-02-2019 16:20:00 10.9 C 72 % 6.06 C
198 19-02-2019 16:25:00 10.9 C 72 % 6.06 C
199 19-02-2019 16:30:00 10.8 C 71 % 5.76 C
200 19-02-2019 16:35:00 10.8 C 73 % 6.16 C
Sensor: Nr:Datum:Temp:Feuchte:Taupunkt:
Aussen-T/F 201 19-02-2019 16:40:00 10.8 C 73 % 6.16 C
202 19-02-2019 16:45:00 10.7 C 72 % 5.87 C
203 19-02-2019 16:50:00 10.7 C 72 % 5.87 C
204 19-02-2019 16:55:00 10.7 C 73 % 6.07 C
205 19-02-2019 17:00:00 10.7 C 72 % 5.87 C
206 19-02-2019 17:05:00 10.4 C 72 % 5.58 C
207 19-02-2019 17:10:00 10.2 C 73 % 5.58 C
208 19-02-2019 17:15:00 10.1 C 73 % 5.49 C
209 19-02-2019 17:20:00 10.1 C 74 % 5.68 C
210 19-02-2019 17:25:00 9.9 C 74 % 5.49 C
211 19-02-2019 17:30:00 9.8 C 74 % 5.39 C
212 19-02-2019 17:35:00 9.6 C 75 % 5.39 C
213 19-02-2019 17:40:00 9.3 C 75 % 5.1 C
214 19-02-2019 17:45:00 9.1 C 76 % 5.1 C
215 19-02-2019 17:50:00 8.7 C 78 % 5.08 C
216 19-02-2019 17:55:00 8.4 C 79 % 4.98 C
217 19-02-2019 18:00:00 8.1 C 80 % 4.86 C
218 19-02-2019 18:05:00 7.8 C 81 % 4.75 C
219 19-02-2019 18:10:00 7.6 C 82 % 4.73 C
220 19-02-2019 18:15:00 7.6 C 82 % 4.73 C
221 19-02-2019 18:20:00 7.5 C 82 % 4.63 C
222 19-02-2019 18:25:00 7.4 C 83 % 4.71 C
223 19-02-2019 18:30:00 7.2 C 83 % 4.51 C
224 19-02-2019 18:35:00 7.1 C 84 % 4.58 C
225 19-02-2019 18:40:00 6.9 C 84 % 4.39 C
Sensor: Nr:Datum:Temp:Feuchte:Taupunkt:
Aussen-T/F 226 19-02-2019 18:45:00 6.8 C 85 % 4.46 C
227 19-02-2019 18:50:00 6.7 C 85 % 4.36 C
228 19-02-2019 18:55:00 6.7 C 86 % 4.53 C
229 19-02-2019 19:00:00 6.6 C 86 % 4.43 C
230 19-02-2019 19:05:00 6.6 C 86 % 4.43 C
231 19-02-2019 19:10:00 6.5 C 86 % 4.33 C
232 19-02-2019 19:15:00 6.4 C 87 % 4.4 C
233 19-02-2019 19:20:00 6.4 C 87 % 4.4 C
234 19-02-2019 19:25:00 6.3 C 87 % 4.3 C
235 19-02-2019 19:30:00 6.2 C 87 % 4.2 C
236 19-02-2019 19:35:00 6.1 C 87 % 4.1 C
237 19-02-2019 19:40:00 6.1 C 88 % 4.27 C
238 19-02-2019 19:45:00 5.9 C 88 % 4.07 C
239 19-02-2019 19:50:00 5.9 C 88 % 4.07 C
240 19-02-2019 19:55:00 5.7 C 88 % 3.87 C
241 19-02-2019 20:00:00 5.7 C 89 % 4.03 C
242 19-02-2019 20:05:00 5.7 C 89 % 4.03 C
243 19-02-2019 20:10:00 5.7 C 89 % 4.03 C
244 19-02-2019 20:15:00 5.6 C 89 % 3.93 C
245 19-02-2019 20:20:00 5.6 C 89 % 3.93 C
246 19-02-2019 20:25:00 5.4 C 89 % 3.74 C
247 19-02-2019 20:30:00 5.4 C 89 % 3.74 C
248 19-02-2019 20:35:00 5.4 C 90 % 3.89 C
249 19-02-2019 20:40:00 5.3 C 89 % 3.64 C
250 19-02-2019 20:45:00 5.2 C 89 % 3.54 C
Sensor: Nr:Datum:Temp:Feuchte:Taupunkt:
Aussen-T/F 251 19-02-2019 20:50:00 5.1 C 90 % 3.6 C
252 19-02-2019 20:55:00 5.2 C 90 % 3.7 C
253 19-02-2019 21:00:00 5.3 C 90 % 3.8 C
254 19-02-2019 21:05:00 5.3 C 90 % 3.8 C
255 19-02-2019 21:10:00 5.3 C 90 % 3.8 C
256 19-02-2019 21:15:00 5.2 C 89 % 3.54 C
257 19-02-2019 21:20:00 5.1 C 89 % 3.44 C
258 19-02-2019 21:25:00 5 C 90 % 3.5 C
259 19-02-2019 21:30:00 4.9 C 90 % 3.4 C
260 19-02-2019 21:35:00 4.8 C 90 % 3.3 C
261 19-02-2019 21:40:00 4.6 C 89 % 2.95 C
262 19-02-2019 21:45:00 4.4 C 89 % 2.75 C
263 19-02-2019 21:50:00 4.2 C 90 % 2.71 C
264 19-02-2019 21:55:00 4.1 C 90 % 2.61 C
265 19-02-2019 22:00:00 3.9 C 90 % 2.41 C
266 19-02-2019 22:05:00 3.8 C 90 % 2.31 C
267 19-02-2019 22:10:00 3.6 C 90 % 2.12 C
268 19-02-2019 22:15:00 3.5 C 91 % 2.17 C
269 19-02-2019 22:20:00 3.4 C 91 % 2.07 C
270 19-02-2019 22:25:00 3.3 C 91 % 1.98 C
271 19-02-2019 22:30:00 3.3 C 92 % 2.13 C
272 19-02-2019 22:35:00 3.3 C 92 % 2.13 C
273 19-02-2019 22:40:00 3.4 C 93 % 2.38 C
274 19-02-2019 22:45:00 3.4 C 92 % 2.23 C
275 19-02-2019 22:50:00 3.4 C 92 % 2.23 C
Sensor: Nr:Datum:Temp:Feuchte:Taupunkt:
Aussen-T/F 276 19-02-2019 22:55:00 3.3 C 92 % 2.13 C
277 19-02-2019 23:00:00 3.3 C 92 % 2.13 C
278 19-02-2019 23:05:00 3.2 C 92 % 2.03 C
279 19-02-2019 23:10:00 3.2 C 92 % 2.03 C
280 19-02-2019 23:15:00 3.1 C 93 % 2.08 C
281 19-02-2019 23:20:00 3.1 C 93 % 2.08 C
282 19-02-2019 23:25:00 3.1 C 93 % 2.08 C
283 19-02-2019 23:30:00 3.1 C 93 % 2.08 C
284 19-02-2019 23:35:00 3 C 93 % 1.98 C
285 19-02-2019 23:40:00 2.9 C 93 % 1.88 C
286 19-02-2019 23:45:00 2.9 C 93 % 1.88 C
287 19-02-2019 23:50:00 2.9 C 93 % 1.88 C
288 19-02-2019 23:55:00 2.8 C 93 % 1.78 C

Legende:
   Min
   Max


Maximal/Minimal-Werte vom 19.02.2019 - 19.02.2019

Sensor Min Max Avg
Temp
(Aussen-T/F)
1.7 °C
19-02-2019  00:05:00
11.3 °C
19-02-2019  16:00:00
5.86 °C
Feuchte
(Aussen-T/F)
70 %
19-02-2019  15:55:00
95 %
19-02-2019  03:30:00
87.71 %
Taupunkt
(Aussen-T/F)
0.39 C
19-02-2019  00:05:00
7.17 C
19-02-2019  13:30:00
3.9 C

Die Daten stammen von einer Davis Vantage Pro 2 Wetter-Station und werden unter Linux mit der Software wview2wettercgi und aufbereitet. Alle Angaben erfolgen ohne Gewähr für ihre Vollständigkeit oder Richtigkeit.
Kontakt: Rainer Krienke krienke@uni-koblenz.de . Meine Webseiten an der Uni Koblenz oder privat.
Version: $Revision: 0.78 $